Time;durP1;ratioP1;P1;durP2;ratioP2;P2;SDS_P1;SDS_P2;PMS_P1;PMS_P2;Temp;Humidity;BMP_temperature;BMP_pressure;BME280_temperature;BME280_humidity;BME280_pressure;Samples;Min_cycle;Max_cycle;Signal;HPM_P1;HPM_P2
2021/01/18 00:00:12;;;;;;;7.15;4.95;;;19.40;40.70;;;;;;5027321;28;20075;-65
2021/01/18 00:02:38;;;;;;;10.25;5.85;;;19.40;40.70;;;;;;5026995;28;20515;-66
2021/01/18 00:05:04;;;;;;;13.07;6.05;;;19.40;40.70;;;;;;5026922;28;20057;-64
2021/01/18 00:07:30;;;;;;;7.68;5.18;;;19.40;40.60;;;;;;5026786;28;20033;-65
2021/01/18 00:09:55;;;;;;;8.20;5.78;;;19.40;40.60;;;;;;5009791;28;20029;-65
2021/01/18 00:12:21;;;;;;;7.07;5.20;;;19.40;40.50;;;;;;5026799;28;20025;-65
2021/01/18 00:14:46;;;;;;;7.32;5.28;;;19.40;40.50;;;;;;5026446;28;20532;-66
2021/01/18 00:17:12;;;;;;;7.30;5.32;;;19.40;40.50;;;;;;5025888;28;20034;-65
2021/01/18 00:19:37;;;;;;;7.38;5.10;;;19.40;40.50;;;;;;5009116;28;20032;-65
2021/01/18 00:22:03;;;;;;;9.52;5.78;;;19.40;40.40;;;;;;5026552;28;20029;-65
2021/01/18 00:24:28;;;;;;;6.18;5.20;;;19.40;40.40;;;;;;5026314;28;20492;-63
2021/01/18 00:26:54;;;;;;;9.52;5.53;;;19.50;40.50;;;;;;5027155;28;20030;-65
2021/01/18 00:29:19;;;;;;;8.25;5.47;;;19.40;40.40;;;;;;5007952;28;20451;-65
2021/01/18 00:31:45;;;;;;;6.82;5.03;;;19.40;40.40;;;;;;5026653;28;20033;-65
2021/01/18 00:34:10;;;;;;;7.22;5.28;;;19.40;40.40;;;;;;5026768;28;20112;-65
2021/01/18 00:36:36;;;;;;;6.05;5.25;;;19.40;40.50;;;;;;5026452;28;20385;-65
2021/01/18 00:39:02;;;;;;;6.28;5.45;;;19.40;40.40;;;;;;5026463;28;20025;-65
2021/01/18 00:41:27;;;;;;;8.18;5.75;;;19.40;40.40;;;;;;5026569;28;20034;-65
2021/01/18 00:43:53;;;;;;;7.53;5.10;;;19.40;40.40;;;;;;5026336;28;20209;-63
2021/01/18 00:46:18;;;;;;;6.47;4.88;;;19.30;40.40;;;;;;5025786;28;20068;-65
2021/01/18 00:48:44;;;;;;;5.90;5.03;;;19.30;40.40;;;;;;5026117;28;20075;-61
2021/01/18 00:51:09;;;;;;;5.72;4.53;;;19.40;40.50;;;;;;5026119;28;20041;-65
2021/01/18 00:53:35;;;;;;;6.25;4.95;;;19.30;40.40;;;;;;5008258;28;20851;-65
2021/01/18 00:56:00;;;;;;;6.28;4.95;;;19.30;40.50;;;;;;5025551;28;20033;-65
2021/01/18 00:58:26;;;;;;;6.25;4.88;;;19.30;40.40;;;;;;5026374;28;20083;-63
2021/01/18 01:00:51;;;;;;;7.05;5.15;;;19.30;40.40;;;;;;5025969;28;20029;-64
2021/01/18 01:03:17;;;;;;;6.35;5.00;;;19.30;41.10;;;;;;5025696;28;20385;-65
2021/01/18 01:05:42;;;;;;;5.93;4.90;;;19.20;40.40;;;;;;5025807;28;20036;-65
2021/01/18 01:08:08;;;;;;;7.35;4.90;;;19.20;40.50;;;;;;5025774;28;20045;-64
2021/01/18 01:10:34;;;;;;;5.57;4.60;;;19.30;40.60;;;;;;5026013;28;20071;-65
2021/01/18 01:13:10;;;;;;;7.57;5.20;;;19.20;40.40;;;;;;5025871;28;20044;-65
2021/01/18 01:15:35;;;;;;;5.88;4.63;;;19.20;40.60;;;;;;5025722;28;20041;-65
2021/01/18 01:18:01;;;;;;;6.30;5.05;;;19.20;40.50;;;;;;5026629;28;20043;-64
2021/01/18 01:20:26;;;;;;;7.63;5.65;;;19.20;40.60;;;;;;5025769;28;20038;-65
2021/01/18 01:22:52;;;;;;;7.68;5.03;;;19.20;40.60;;;;;;5025322;28;20029;-65
2021/01/18 01:25:19;;;;;;;5.55;4.53;;;19.20;40.70;;;;;;5025472;28;20424;-65
2021/01/18 01:27:45;;;;;;;6.43;4.53;;;19.20;40.60;;;;;;5025131;28;20030;-63
2021/01/18 01:30:17;;;;;;;5.75;4.72;;;19.20;40.60;;;;;;5025307;28;20631;-65
2021/01/18 01:32:47;;;;;;;5.85;5.18;;;19.20;40.70;;;;;;5008435;28;20496;-64
2021/01/18 01:35:12;;;;;;;6.10;4.60;;;19.20;40.80;;;;;;5024923;28;20531;-64
2021/01/18 01:37:38;;;;;;;6.13;4.80;;;19.10;40.70;;;;;;5023747;28;20030;-65
2021/01/18 01:40:05;;;;;;;7.07;4.75;;;19.10;40.70;;;;;;5025954;28;20024;-66
2021/01/18 01:42:30;;;;;;;5.60;4.95;;;19.10;40.80;;;;;;5007745;28;20060;-65
2021/01/18 01:44:55;;;;;;;5.78;4.78;;;19.10;40.80;;;;;;5024973;28;20017;-66
2021/01/18 01:47:35;;;;;;;5.60;4.43;;;19.10;40.80;;;;;;5024736;28;20383;-64
2021/01/18 01:50:01;;;;;;;4.75;4.05;;;19.10;40.90;;;;;;5007605;28;20033;-65
2021/01/18 01:52:28;;;;;;;5.22;4.50;;;19.10;40.90;;;;;;4990847;28;20724;-65
2021/01/18 01:54:55;;;;;;;5.15;4.65;;;19.10;41.00;;;;;;5007428;28;20255;-65
2021/01/18 01:57:21;;;;;;;4.70;4.30;;;19.10;41.00;;;;;;5007020;28;20034;-65
2021/01/18 01:59:46;;;;;;;5.93;4.50;;;19.10;41.00;;;;;;5007503;28;20036;-63
2021/01/18 02:02:13;;;;;;;5.18;4.32;;;19.10;41.00;;;;;;5007418;28;20030;-64
2021/01/18 02:04:39;;;;;;;4.78;4.30;;;19.10;41.00;;;;;;4990694;28;20439;-65
2021/01/18 02:07:21;;;;;;;5.90;4.82;;;19.00;41.00;;;;;;5007390;28;20025;-65
2021/01/18 02:09:46;;;;;;;4.90;4.30;;;19.00;41.10;;;;;;5007121;28;20045;-65
2021/01/18 02:12:12;;;;;;;4.90;4.45;;;19.00;41.10;;;;;;5024697;28;20061;-65
2021/01/18 02:14:39;;;;;;;5.68;5.05;;;19.00;41.10;;;;;;5007114;28;20022;-63
2021/01/18 02:17:18;;;;;;;6.97;4.80;;;18.90;41.10;;;;;;5008296;28;20025;-66
2021/01/18 02:20:17;;;;;;;4.90;4.25;;;18.90;41.10;;;;;;4991285;28;20029;-65
2021/01/18 02:22:58;;;;;;;5.93;4.85;;;18.90;41.10;;;;;;5024699;28;20029;-65
2021/01/18 02:25:38;;;;;;;5.05;4.40;;;18.90;41.00;;;;;;5024297;28;20538;-66
2021/01/18 02:28:27;;;;;;;4.75;4.35;;;18.80;41.00;;;;;;5007408;28;20453;-64
2021/01/18 02:31:29;;;;;;;5.50;4.38;;;18.80;41.10;;;;;;5023424;28;20033;-65
2021/01/18 02:34:08;;;;;;;5.25;4.68;;;18.70;41.10;;;;;;5022797;28;20044;-64
2021/01/18 02:36:56;;;;;;;5.55;4.80;;;18.70;41.10;;;;;;5008050;28;20029;-65
2021/01/18 02:39:28;;;;;;;5.18;4.43;;;18.60;41.20;;;;;;5005964;28;20148;-65
2021/01/18 02:42:04;;;;;;;6.32;4.93;;;18.60;41.10;;;;;;5007011;28;20112;-64
2021/01/18 02:44:30;;;;;;;4.22;3.83;;;18.60;41.20;;;;;;5005973;28;20116;-63
2021/01/18 02:46:55;;;;;;;4.88;4.20;;;18.50;41.20;;;;;;5006414;28;20037;-65
2021/01/18 02:49:21;;;;;;;6.30;4.70;;;18.50;41.20;;;;;;5006744;28;20091;-65
2021/01/18 02:51:52;;;;;;;4.80;4.40;;;18.50;41.20;;;;;;5006905;28;20034;-65
2021/01/18 02:54:17;;;;;;;5.95;5.05;;;18.50;41.20;;;;;;5006718;28;20053;-65
2021/01/18 02:56:49;;;;;;;4.68;4.15;;;18.40;41.20;;;;;;5023615;28;20459;-64
2021/01/18 02:59:14;;;;;;;5.90;5.35;;;18.40;41.20;;;;;;5006447;28;20042;-65
2021/01/18 03:02:15;;;;;;;5.05;4.60;;;18.50;41.20;;;;;;5006379;28;20463;-66
2021/01/18 03:04:51;;;;;;;5.95;4.47;;;18.40;41.20;;;;;;5023800;28;20021;-65
2021/01/18 03:07:28;;;;;;;5.28;4.55;;;18.40;41.00;;;;;;5006520;28;20079;-65
2021/01/18 03:10:03;;;;;;;4.82;4.43;;;18.40;41.10;;;;;;5006252;28;20499;-65
2021/01/18 03:12:29;;;;;;;4.97;4.45;;;18.40;41.10;;;;;;4990726;28;20038;-65
2021/01/18 03:14:55;;;;;;;5.10;4.60;;;18.30;41.10;;;;;;5006276;28;20385;-65
2021/01/18 03:17:23;;;;;;;4.63;4.22;;;18.30;41.20;;;;;;5023637;28;20064;-65
2021/01/18 03:19:49;;;;;;;4.85;4.45;;;18.30;41.20;;;;;;5023786;28;20029;-65
2021/01/18 03:22:30;;;;;;;3.67;3.38;;;18.30;41.30;;;;;;5006052;28;20033;-65
2021/01/18 03:25:05;;;;;;;4.38;3.97;;;18.30;41.30;;;;;;5023640;28;20056;-65
2021/01/18 03:27:50;;;;;;;4.50;4.00;;;18.40;41.20;;;;;;5023995;28;20038;-65
2021/01/18 03:30:17;;;;;;;4.93;4.43;;;18.50;41.30;;;;;;5007821;28;20057;-65
2021/01/18 03:32:43;;;;;;;4.57;4.18;;;18.50;41.30;;;;;;5023872;28;20492;-65
2021/01/18 03:35:08;;;;;;;5.18;4.25;;;18.60;41.20;;;;;;5006528;28;20037;-65
2021/01/18 03:37:34;;;;;;;4.93;4.45;;;18.70;41.20;;;;;;5023865;28;20025;-65
2021/01/18 03:39:59;;;;;;;5.22;4.65;;;18.80;41.10;;;;;;5022609;28;20599;-65
2021/01/18 03:42:25;;;;;;;4.88;4.00;;;18.80;41.10;;;;;;5005710;28;20095;-65
2021/01/18 03:44:50;;;;;;;4.35;3.95;;;18.90;41.00;;;;;;5023486;28;20021;-65
2021/01/18 03:47:16;;;;;;;4.45;4.05;;;19.00;40.90;;;;;;5023370;28;20048;-65
2021/01/18 03:49:41;;;;;;;4.13;3.72;;;19.00;40.90;;;;;;5024052;28;20050;-63
2021/01/18 03:52:08;;;;;;;4.78;4.32;;;19.10;40.90;;;;;;5023743;28;20086;-65
2021/01/18 03:54:34;;;;;;;4.55;4.15;;;19.20;40.80;;;;;;5005969;28;20089;-65
2021/01/18 03:56:59;;;;;;;4.85;4.13;;;19.20;40.70;;;;;;5006326;28;20025;-65
2021/01/18 03:59:25;;;;;;;3.97;3.65;;;19.30;40.70;;;;;;5025809;28;20037;-65
2021/01/18 04:01:50;;;;;;;5.10;4.10;;;19.30;40.60;;;;;;5027457;28;20036;-64
2021/01/18 04:04:16;;;;;;;4.70;4.30;;;19.40;40.60;;;;;;5009574;28;20508;-65
2021/01/18 04:06:41;;;;;;;4.30;3.90;;;19.50;40.60;;;;;;5028066;28;20033;-64
2021/01/18 04:09:07;;;;;;;4.53;4.10;;;19.50;40.50;;;;;;5026917;28;20057;-65
2021/01/18 04:11:32;;;;;;;4.07;3.75;;;19.60;40.40;;;;;;5027322;28;20042;-65
2021/01/18 04:13:58;;;;;;;4.50;4.10;;;19.60;40.40;;;;;;5026888;28;20645;-65
2021/01/18 04:16:23;;;;;;;4.53;4.13;;;19.70;40.30;;;;;;5026397;28;20033;-65
2021/01/18 04:18:49;;;;;;;4.38;3.85;;;19.70;40.20;;;;;;5027111;28;20075;-63
2021/01/18 04:21:18;;;;;;;4.28;3.88;;;19.70;40.20;;;;;;5020949;28;20512;-64
2021/01/18 04:23:43;;;;;;;4.57;4.10;;;19.70;40.10;;;;;;5016258;28;20045;-65
2021/01/18 04:26:09;;;;;;;4.40;4.00;;;19.70;40.00;;;;;;5016109;28;20034;-65
2021/01/18 04:28:34;;;;;;;4.65;4.10;;;19.70;40.00;;;;;;5016630;28;20036;-65
2021/01/18 04:31:00;;;;;;;4.45;4.13;;;19.70;40.00;;;;;;5021107;28;20041;-65
2021/01/18 04:33:26;;;;;;;4.13;3.80;;;19.70;40.00;;;;;;5026550;28;20736;-64
2021/01/18 04:35:53;;;;;;;4.25;3.85;;;19.70;40.00;;;;;;5026644;28;20030;-63
2021/01/18 04:38:19;;;;;;;4.47;4.07;;;19.70;39.90;;;;;;5026127;28;20116;-65
2021/01/18 04:40:44;;;;;;;4.38;3.97;;;19.70;40.00;;;;;;5027110;28;20033;-65
2021/01/18 04:43:10;;;;;;;4.20;3.80;;;19.70;40.00;;;;;;5026403;28;20035;-65
2021/01/18 04:45:36;;;;;;;4.38;3.97;;;19.70;40.00;;;;;;5008848;28;20072;-66
2021/01/18 04:48:01;;;;;;;4.03;3.70;;;19.70;40.00;;;;;;5008707;28;20032;-64
2021/01/18 04:50:28;;;;;;;4.47;4.07;;;19.60;39.90;;;;;;5026462;28;20076;-62
2021/01/18 04:52:54;;;;;;;4.88;4.45;;;19.60;39.90;;;;;;5026396;28;20520;-65
2021/01/18 04:55:42;;;;;;;3.40;3.10;;;19.60;40.00;;;;;;5026629;28;20045;-65
2021/01/18 04:58:12;;;;;;;4.35;3.95;;;19.60;40.00;;;;;;5026186;28;20025;-65
2021/01/18 05:00:45;;;;;;;3.90;3.60;;;19.50;39.90;;;;;;5026353;28;20138;-64
2021/01/18 05:03:12;;;;;;;4.10;3.67;;;19.50;40.00;;;;;;5026340;28;20160;-62
2021/01/18 05:05:52;;;;;;;4.30;3.90;;;19.50;40.00;;;;;;5026123;28;20030;-65
2021/01/18 05:08:41;;;;;;;4.50;4.10;;;19.50;40.00;;;;;;5009632;28;20032;-65
2021/01/18 05:11:08;;;;;;;4.13;3.72;;;19.50;40.00;;;;;;5006685;28;20571;-65
2021/01/18 05:13:34;;;;;;;3.67;3.38;;;19.50;40.10;;;;;;5008947;28;20558;-65
2021/01/18 05:15:59;;;;;;;3.90;3.60;;;19.40;40.00;;;;;;5026908;28;20021;-66
2021/01/18 05:18:32;;;;;;;4.10;3.78;;;19.40;40.00;;;;;;5026180;28;20030;-63
2021/01/18 05:21:02;;;;;;;4.03;3.65;;;19.40;40.00;;;;;;5026119;28;20125;-65
2021/01/18 05:23:27;;;;;;;4.03;3.53;;;19.40;40.10;;;;;;5008887;28;20040;-65
2021/01/18 05:26:15;;;;;;;4.10;3.80;;;19.40;40.00;;;;;;5025548;28;20037;-68
2021/01/18 05:28:47;;;;;;;3.50;3.20;;;19.30;40.00;;;;;;5025872;28;20057;-67
2021/01/18 05:31:32;;;;;;;4.55;3.80;;;19.30;40.00;;;;;;5008248;28;20676;-66
2021/01/18 05:34:05;;;;;;;4.70;3.67;;;19.30;40.10;;;;;;5025685;28;20037;-65
2021/01/18 05:36:40;;;;;;;4.88;4.00;;;19.30;40.10;;;;;;4991527;28;20318;-66
2021/01/18 05:39:19;;;;;;;4.10;3.28;;;19.30;40.20;;;;;;5025577;28;20101;-68
2021/01/18 05:41:54;;;;;;;6.03;3.38;;;19.30;40.20;;;;;;5024820;28;20120;-66
2021/01/18 05:44:20;;;;;;;3.83;3.43;;;19.30;40.30;;;;;;5025024;28;20479;-64
2021/01/18 05:46:46;;;;;;;4.07;3.67;;;19.20;40.40;;;;;;5007695;28;20025;-65
2021/01/18 05:49:16;;;;;;;4.50;3.30;;;19.20;40.50;;;;;;5007995;28;20108;-66
2021/01/18 05:51:42;;;;;;;3.50;3.20;;;19.20;40.60;;;;;;5025207;28;20140;-67
2021/01/18 05:54:11;;;;;;;3.47;2.95;;;19.20;40.70;;;;;;5007445;28;20113;-66
2021/01/18 05:56:39;;;;;;;4.07;3.70;;;19.20;40.80;;;;;;5025230;28;20650;-64
2021/01/18 05:59:18;;;;;;;3.67;3.03;;;19.20;40.90;;;;;;5025151;28;20229;-67
2021/01/18 06:01:44;;;;;;;3.67;3.38;;;19.20;41.00;;;;;;5007638;28;20232;-63
2021/01/18 06:04:17;;;;;;;2.45;2.25;;;19.20;41.00;;;;;;5024413;28;20065;-66
2021/01/18 06:06:53;;;;;;;5.43;3.20;;;19.20;41.10;;;;;;5007182;28;20421;-68
2021/01/18 06:09:19;;;;;;;4.55;3.50;;;19.20;41.10;;;;;;5024858;28;20055;-67
2021/01/18 06:11:44;;;;;;;3.95;3.08;;;19.20;41.20;;;;;;5025346;28;20061;-69
2021/01/18 06:14:09;;;;;;;3.90;2.75;;;19.20;41.20;;;;;;5007187;28;20450;-67
2021/01/18 06:16:35;;;;;;;4.05;3.22;;;19.10;41.20;;;;;;4991243;28;20041;-67
2021/01/18 06:19:08;;;;;;;7.10;4.63;;;19.20;41.30;;;;;;5007217;28;20022;-70
2021/01/18 06:21:34;;;;;;;12.07;5.55;;;19.20;41.30;;;;;;5024854;28;20060;-66
2021/01/18 06:24:26;;;;;;;14.13;6.68;;;19.20;41.40;;;;;;5022781;28;20037;-66
2021/01/18 06:26:51;;;;;;;16.10;8.65;;;19.20;42.10;;;;;;5023933;28;20025;-66
2021/01/18 06:29:35;;;;;;;15.88;7.80;;;19.10;41.60;;;;;;5006536;28;20047;-68
2021/01/18 06:32:01;;;;;;;18.83;7.90;;;19.10;41.60;;;;;;5008749;28;20451;-65
2021/01/18 06:34:27;;;;;;;12.95;7.43;;;19.00;41.60;;;;;;5015911;28;20038;-68
2021/01/18 06:36:54;;;;;;;15.35;6.45;;;19.00;41.70;;;;;;5007004;28;20033;-66
2021/01/18 06:39:26;;;;;;;17.13;7.70;;;19.00;41.70;;;;;;4989973;28;20037;-66
2021/01/18 06:41:56;;;;;;;18.50;7.70;;;19.00;41.70;;;;;;5006734;28;20063;-68
2021/01/18 06:44:34;;;;;;;13.68;7.20;;;18.90;41.80;;;;;;5023876;28;20033;-66
2021/01/18 06:47:00;;;;;;;16.08;7.10;;;18.90;41.80;;;;;;5006233;28;20128;-65
2021/01/18 06:49:26;;;;;;;15.75;7.32;;;18.90;41.80;;;;;;5003165;28;20409;-65
2021/01/18 06:51:52;;;;;;;19.20;6.65;;;18.90;41.90;;;;;;5003725;28;20068;-65
2021/01/18 06:54:19;;;;;;;21.58;8.00;;;18.90;41.90;;;;;;5003269;28;20505;-65
2021/01/18 06:57:34;;;;;;;16.00;8.35;;;18.80;41.90;;;;;;4991787;28;20029;-65
2021/01/18 07:00:02;;;;;;;15.65;7.57;;;18.80;42.00;;;;;;4974180;28;20056;-65
2021/01/18 07:02:29;;;;;;;12.98;6.47;;;18.80;41.90;;;;;;5002732;28;20435;-65
2021/01/18 07:05:08;;;;;;;23.00;8.68;;;18.80;41.80;;;;;;5004831;28;20042;-65
2021/01/18 07:07:35;;;;;;;32.42;9.65;;;18.80;41.80;;;;;;4987385;28;20141;-65
2021/01/18 07:10:03;;;;;;;26.17;10.05;;;18.80;41.90;;;;;;5005117;28;20056;-66
2021/01/18 07:12:29;;;;;;;29.02;9.70;;;18.80;41.90;;;;;;5005644;28;20030;-65
2021/01/18 07:15:05;;;;;;;29.00;9.65;;;18.80;42.00;;;;;;5004972;28;20048;-65
2021/01/18 07:17:37;;;;;;;28.83;10.77;;;18.80;42.70;;;;;;5004631;28;20038;-67
2021/01/18 07:20:03;;;;;;;32.85;9.40;;;18.80;42.00;;;;;;5003823;28;20109;-65
2021/01/18 07:23:15;;;;;;;26.65;9.30;;;18.80;42.00;;;;;;5000585;28;20467;-65
2021/01/18 07:25:41;;;;;;;26.40;8.77;;;18.80;42.00;;;;;;4888975;29;20057;-66
2021/01/18 07:28:08;;;;;;;26.48;9.10;;;18.80;42.00;;;;;;4889644;29;20148;-68
2021/01/18 07:30:34;;;;;;;21.83;8.13;;;18.80;42.00;;;;;;4945153;28;20030;-65
2021/01/18 07:33:13;;;;;;;22.20;7.60;;;18.80;42.00;;;;;;5003948;28;20155;-65
2021/01/18 07:35:39;;;;;;;30.05;9.13;;;18.90;42.00;;;;;;5007981;28;20026;-66
2021/01/18 07:38:21;;;;;;;29.38;8.65;;;18.90;42.00;;;;;;4990186;28;20030;-65
2021/01/18 07:41:06;;;;;;;25.38;8.70;;;18.90;42.00;;;;;;5007930;28;20030;-66
2021/01/18 07:43:41;;;;;;;24.58;7.47;;;18.90;41.90;;;;;;5008285;28;20026;-65
2021/01/18 07:46:25;;;;;;;21.52;7.78;;;19.00;41.90;;;;;;5007881;28;20065;-65
2021/01/18 07:48:58;;;;;;;25.63;6.70;;;19.00;41.90;;;;;;5007744;28;20054;-66
2021/01/18 07:51:24;;;;;;;20.35;7.55;;;19.00;41.80;;;;;;5007718;28;20046;-66
2021/01/18 07:53:50;;;;;;;20.88;7.35;;;19.00;41.80;;;;;;4994193;28;20180;-66
2021/01/18 07:56:29;;;;;;;22.48;7.88;;;19.00;42.40;;;;;;5009417;28;20539;-65
2021/01/18 07:58:58;;;;;;;22.58;6.97;;;19.00;41.80;;;;;;5027473;28;20029;-64
2021/01/18 08:01:39;;;;;;;15.65;6.03;;;19.10;41.80;;;;;;5026989;28;20047;-64
2021/01/18 08:04:16;;;;;;;16.98;7.00;;;19.10;41.80;;;;;;5009354;28;20122;-67
2021/01/18 08:07:06;;;;;;;16.17;5.90;;;19.10;41.80;;;;;;5027203;28;20171;-65
2021/01/18 08:09:32;;;;;;;20.27;7.03;;;19.10;41.80;;;;;;5014507;28;20029;-65
2021/01/18 08:12:35;;;;;;;14.90;6.70;;;19.20;41.80;;;;;;5026985;28;20026;-65
2021/01/18 08:15:09;;;;;;;17.13;6.05;;;19.20;41.70;;;;;;5015352;28;20548;-65
2021/01/18 08:17:35;;;;;;;15.20;5.80;;;19.20;41.70;;;;;;5026497;28;21307;-65
2021/01/18 08:20:16;;;;;;;17.08;5.57;;;19.30;41.70;;;;;;5027316;28;20030;-64
2021/01/18 08:22:41;;;;;;;13.70;5.68;;;19.30;41.60;;;;;;5025450;28;20029;-65
2021/01/18 08:25:07;;;;;;;14.18;5.43;;;19.30;41.60;;;;;;5026467;28;20042;-65
2021/01/18 08:27:41;;;;;;;9.13;4.88;;;19.30;41.60;;;;;;5009680;28;20037;-65
2021/01/18 08:30:21;;;;;;;13.15;5.15;;;19.40;41.60;;;;;;5026358;28;20026;-65
2021/01/18 08:33:16;;;;;;;9.27;4.65;;;19.40;41.50;;;;;;5026110;28;20036;-64
2021/01/18 08:35:49;;;;;;;19.63;4.97;;;19.40;41.40;;;;;;5002752;28;20026;-65
2021/01/18 08:38:28;;;;;;;9.32;4.53;;;19.50;41.60;;;;;;5006993;28;20054;-63
2021/01/18 08:41:08;;;;;;;10.38;4.30;;;19.50;41.60;;;;;;5006295;28;20114;-67
2021/01/18 08:43:53;;;;;;;13.55;4.43;;;19.50;41.60;;;;;;5006755;28;20026;-66
2021/01/18 08:46:33;;;;;;;12.52;4.93;;;19.60;41.80;;;;;;5021514;28;20026;-66
2021/01/18 08:49:20;;;;;;;12.35;4.53;;;19.60;41.90;;;;;;5006513;28;20022;-65
2021/01/18 08:51:47;;;;;;;10.40;3.67;;;19.60;41.90;;;;;;5005968;28;20556;-66
2021/01/18 08:54:26;;;;;;;13.65;4.45;;;19.70;42.00;;;;;;5006801;28;20041;-65
2021/01/18 08:56:52;;;;;;;11.30;4.00;;;19.60;42.00;;;;;;5006625;28;20026;-66
2021/01/18 08:59:17;;;;;;;10.82;4.05;;;19.60;42.10;;;;;;5006255;28;20108;-63
2021/01/18 09:01:43;;;;;;;11.60;4.68;;;19.70;42.10;;;;;;5004898;28;20064;-66
2021/01/18 09:04:08;;;;;;;10.45;4.10;;;19.70;42.10;;;;;;5005111;28;20562;-67
2021/01/18 09:06:34;;;;;;;8.75;4.10;;;19.70;42.10;;;;;;5006594;28;20029;-65
2021/01/18 09:09:01;;;;;;;9.20;4.00;;;19.70;42.20;;;;;;5005248;28;20125;-64
2021/01/18 09:11:27;;;;;;;11.18;3.83;;;19.70;42.20;;;;;;5005743;28;20038;-65
2021/01/18 09:13:52;;;;;;;10.88;3.72;;;19.70;42.20;;;;;;5003991;28;20076;-65
2021/01/18 09:16:18;;;;;;;8.00;3.60;;;19.70;42.20;;;;;;4988100;28;20558;-66
2021/01/18 09:18:44;;;;;;;7.70;3.35;;;19.70;42.30;;;;;;5021500;28;20559;-65
2021/01/18 09:21:09;;;;;;;8.18;3.60;;;19.60;42.90;;;;;;5006320;28;20045;-65
2021/01/18 09:23:35;;;;;;;6.05;3.45;;;19.60;42.30;;;;;;5020907;28;20072;-65
2021/01/18 09:26:02;;;;;;;10.48;3.72;;;19.60;42.20;;;;;;5020926;28;20467;-66
2021/01/18 09:28:27;;;;;;;6.20;2.92;;;19.60;42.20;;;;;;5006510;28;20251;-65
2021/01/18 09:30:53;;;;;;;5.93;3.25;;;19.60;42.30;;;;;;5021040;28;20030;-66
2021/01/18 09:33:18;;;;;;;6.53;3.40;;;19.60;42.30;;;;;;5021036;28;20038;-65
2021/01/18 09:35:45;;;;;;;8.05;3.15;;;19.50;42.30;;;;;;5020973;28;20492;-65
2021/01/18 09:38:11;;;;;;;6.97;3.47;;;19.50;42.40;;;;;;5021781;28;20116;-64
2021/01/18 09:40:41;;;;;;;6.88;3.50;;;19.50;42.40;;;;;;5005286;28;20710;-64
2021/01/18 09:43:07;;;;;;;6.97;2.90;;;19.50;42.30;;;;;;5020764;28;20447;-66
2021/01/18 09:45:33;;;;;;;7.60;2.95;;;19.50;42.40;;;;;;5005366;28;20045;-64
2021/01/18 09:48:03;;;;;;;6.47;3.05;;;19.50;42.50;;;;;;5020580;28;20042;-65
2021/01/18 09:50:29;;;;;;;3.88;2.53;;;19.50;42.50;;;;;;5005226;28;20034;-63
2021/01/18 09:52:55;;;;;;;4.22;2.92;;;19.40;42.50;;;;;;5005177;28;20045;-65
2021/01/18 09:55:28;;;;;;;6.65;2.92;;;19.40;42.50;;;;;;5004746;28;20053;-65
2021/01/18 09:57:58;;;;;;;6.03;2.90;;;19.40;42.50;;;;;;5020057;28;20093;-65
2021/01/18 10:00:26;;;;;;;6.53;2.85;;;19.40;42.50;;;;;;5020244;28;20037;-64
2021/01/18 10:02:51;;;;;;;5.50;2.40;;;19.40;42.50;;;;;;5004965;28;20025;-66
2021/01/18 10:05:22;;;;;;;4.22;2.55;;;19.40;42.50;;;;;;5003930;28;20037;-66
2021/01/18 10:07:50;;;;;;;6.15;3.15;;;19.40;42.60;;;;;;4987349;28;20026;-66
2021/01/18 10:10:15;;;;;;;6.72;2.80;;;19.40;42.70;;;;;;5004071;28;20046;-65
2021/01/18 10:12:43;;;;;;;5.07;2.40;;;19.30;42.60;;;;;;5005475;28;20036;-64
2021/01/18 10:15:09;;;;;;;6.00;2.92;;;19.30;42.60;;;;;;5003476;28;20042;-65
2021/01/18 10:17:34;;;;;;;3.10;2.38;;;19.30;42.60;;;;;;5004155;28;20049;-63
2021/01/18 10:20:04;;;;;;;6.28;2.60;;;19.30;42.70;;;;;;5004235;28;20038;-64
2021/01/18 10:22:34;;;;;;;7.00;2.72;;;19.30;42.70;;;;;;5019791;28;20081;-64
2021/01/18 10:25:00;;;;;;;6.00;2.55;;;19.30;42.70;;;;;;5009118;28;20095;-65
2021/01/18 10:27:28;;;;;;;7.60;2.67;;;19.30;43.30;;;;;;5023838;28;20503;-65
2021/01/18 10:30:13;;;;;;;3.90;2.55;;;19.20;42.70;;;;;;5024796;28;20433;-65
2021/01/18 10:32:41;;;;;;;4.82;2.40;;;19.30;43.30;;;;;;5024923;28;20029;-65
2021/01/18 10:35:29;;;;;;;4.00;2.75;;;19.20;42.70;;;;;;5024235;28;20111;-66
2021/01/18 10:38:20;;;;;;;3.38;2.05;;;19.20;42.70;;;;;;5024093;28;20064;-66
2021/01/18 10:41:03;;;;;;;4.20;2.33;;;19.20;42.70;;;;;;5024398;28;20029;-63
2021/01/18 10:43:29;;;;;;;6.32;2.50;;;19.20;42.80;;;;;;5024568;28;20037;-65
2021/01/18 10:45:55;;;;;;;4.20;2.47;;;19.20;42.80;;;;;;5006750;28;20044;-65
2021/01/18 10:48:26;;;;;;;4.18;2.10;;;19.20;42.80;;;;;;5024373;28;20101;-65
2021/01/18 10:50:55;;;;;;;3.30;2.15;;;19.20;42.80;;;;;;5024384;28;20515;-65
2021/01/18 10:53:20;;;;;;;4.60;2.28;;;19.20;42.80;;;;;;5006328;28;20030;-64
2021/01/18 10:55:46;;;;;;;4.25;2.78;;;19.20;42.80;;;;;;5006861;28;20022;-66
2021/01/18 10:58:11;;;;;;;3.92;1.92;;;19.20;42.80;;;;;;5006553;28;20040;-65
2021/01/18 11:00:40;;;;;;;4.10;2.42;;;19.20;42.80;;;;;;5024376;28;20026;-63
2021/01/18 11:03:06;;;;;;;4.47;2.53;;;19.20;42.80;;;;;;5023924;28;20026;-65
2021/01/18 11:05:38;;;;;;;3.88;2.15;;;19.20;42.80;;;;;;5006743;28;20029;-66
2021/01/18 11:08:07;;;;;;;3.78;2.28;;;19.10;42.70;;;;;;5006432;28;20242;-64
2021/01/18 11:10:43;;;;;;;2.92;1.90;;;19.10;42.80;;;;;;5028401;28;20083;-66
2021/01/18 11:13:12;;;;;;;4.82;2.30;;;19.10;42.70;;;;;;5010590;28;20029;-65
2021/01/18 11:15:40;;;;;;;4.60;2.15;;;19.10;42.80;;;;;;5010835;28;20037;-65
2021/01/18 11:18:06;;;;;;;2.97;1.95;;;19.10;42.80;;;;;;5010905;28;20037;-65
2021/01/18 11:20:32;;;;;;;5.40;2.25;;;19.10;42.90;;;;;;5028112;28;20036;-65
2021/01/18 11:22:58;;;;;;;4.85;2.03;;;19.00;42.80;;;;;;4993410;28;20034;-65
2021/01/18 11:25:23;;;;;;;4.65;2.13;;;19.00;42.90;;;;;;5010059;28;20403;-64
2021/01/18 11:27:49;;;;;;;3.55;1.88;;;19.00;42.90;;;;;;5011158;28;20061;-66
2021/01/18 11:30:15;;;;;;;3.97;1.80;;;19.00;42.90;;;;;;5010363;28;20087;-64
2021/01/18 11:32:40;;;;;;;2.90;1.83;;;19.00;42.90;;;;;;5010122;28;20049;-65
2021/01/18 11:35:07;;;;;;;3.63;1.95;;;18.90;42.90;;;;;;5009627;28;20091;-66
2021/01/18 11:37:34;;;;;;;3.08;1.77;;;18.90;42.90;;;;;;5009234;28;20033;-65
2021/01/18 11:40:00;;;;;;;2.45;1.42;;;18.90;42.90;;;;;;5009965;28;20030;-65
2021/01/18 11:42:25;;;;;;;3.40;2.10;;;19.00;43.00;;;;;;5009929;28;20025;-63
2021/01/18 11:44:51;;;;;;;3.67;1.95;;;18.90;42.90;;;;;;5027779;28;20036;-65
2021/01/18 11:47:16;;;;;;;2.83;1.83;;;18.90;43.00;;;;;;5026890;28;20554;-65
2021/01/18 11:49:42;;;;;;;3.90;2.10;;;18.90;43.00;;;;;;5027244;28;20033;-65
2021/01/18 11:52:07;;;;;;;3.33;2.25;;;18.90;43.00;;;;;;5025931;28;20048;-65
2021/01/18 11:54:33;;;;;;;3.85;1.80;;;18.90;42.90;;;;;;5027024;28;20033;-65
2021/01/18 11:56:58;;;;;;;2.28;1.70;;;18.90;43.00;;;;;;5027235;28;20084;-65
2021/01/18 11:59:24;;;;;;;2.60;1.90;;;19.00;43.00;;;;;;5027127;28;20113;-64
2021/01/18 12:01:49;;;;;;;4.18;1.92;;;19.00;43.00;;;;;;5027713;28;20084;-66
2021/01/18 12:04:16;;;;;;;2.42;1.35;;;19.00;42.90;;;;;;5005872;28;20029;-66
2021/01/18 12:06:41;;;;;;;2.83;1.60;;;19.00;42.90;;;;;;5008694;28;20032;-65
2021/01/18 12:09:08;;;;;;;3.10;2.00;;;19.00;43.00;;;;;;5008809;28;20018;-65
2021/01/18 12:11:36;;;;;;;2.88;1.83;;;19.00;43.00;;;;;;5008317;28;20129;-65
2021/01/18 12:14:02;;;;;;;4.15;1.80;;;19.00;42.90;;;;;;4991947;28;20061;-66
2021/01/18 12:16:28;;;;;;;2.47;1.70;;;19.00;43.00;;;;;;5008864;28;20060;-62
2021/01/18 12:18:54;;;;;;;2.58;1.75;;;19.00;42.90;;;;;;5026520;28;20091;-65
2021/01/18 12:21:19;;;;;;;2.20;1.13;;;19.10;42.90;;;;;;5008790;28;20079;-66
2021/01/18 12:23:45;;;;;;;2.33;1.50;;;19.10;42.90;;;;;;5008313;28;20117;-66
2021/01/18 12:26:18;;;;;;;2.33;1.48;;;19.10;42.90;;;;;;5026775;28;20030;-66
2021/01/18 12:28:44;;;;;;;2.90;1.58;;;19.10;42.90;;;;;;5026515;28;20037;-66
2021/01/18 12:31:09;;;;;;;3.63;1.70;;;19.10;42.90;;;;;;5026638;28;20037;-65
2021/01/18 12:33:35;;;;;;;2.35;1.60;;;19.10;42.90;;;;;;5008739;28;20120;-65
2021/01/18 12:36:00;;;;;;;2.92;1.73;;;19.10;42.90;;;;;;5025489;28;20029;-65
2021/01/18 12:38:26;;;;;;;3.17;1.50;;;19.10;42.80;;;;;;5026469;28;20030;-66
2021/01/18 12:40:52;;;;;;;3.30;1.80;;;19.20;42.90;;;;;;5009546;28;20091;-66
2021/01/18 12:43:18;;;;;;;3.65;1.75;;;19.20;42.80;;;;;;4992425;28;20782;-66
2021/01/18 12:45:47;;;;;;;2.40;1.50;;;19.10;42.80;;;;;;5026505;28;20024;-66
2021/01/18 12:48:12;;;;;;;2.30;1.55;;;19.20;42.80;;;;;;5009442;28;20030;-65
2021/01/18 12:50:40;;;;;;;3.13;1.80;;;19.20;42.80;;;;;;5008198;28;20044;-64
2021/01/18 12:53:06;;;;;;;2.60;1.67;;;19.20;42.70;;;;;;5026378;28;20033;-66
2021/01/18 12:55:31;;;;;;;2.95;1.65;;;19.20;42.70;;;;;;5008774;28;20037;-66
2021/01/18 12:57:57;;;;;;;2.08;1.45;;;19.20;42.80;;;;;;5026535;28;20029;-64